createdAt,value
2023-10-31T00:01:38.122Z,0.00
2023-10-31T00:04:06.652Z,0.10
2023-10-31T00:06:34.654Z,0.00
2023-10-31T00:09:04.110Z,0.10
2023-10-31T00:11:32.094Z,0.10
2023-10-31T00:14:00.126Z,0.10
2023-10-31T00:16:28.260Z,0.10
2023-10-31T00:18:56.303Z,0.10
2023-10-31T00:21:24.299Z,0.10
2023-10-31T00:23:52.277Z,0.10
2023-10-31T00:26:21.833Z,0.17
2023-10-31T00:28:49.866Z,0.10
2023-10-31T00:31:17.945Z,0.10
2023-10-31T00:33:46.017Z,0.20
2023-10-31T00:36:14.201Z,0.10
2023-10-31T00:38:42.173Z,0.00
2023-10-31T00:41:10.292Z,0.10
2023-10-31T00:43:39.700Z,0.10
2023-10-31T00:46:07.865Z,0.10
2023-10-31T00:48:37.646Z,0.20
2023-10-31T00:51:06.059Z,0.20
2023-10-31T00:53:34.584Z,0.00
2023-10-31T00:56:04.231Z,0.13
2023-10-31T00:58:32.286Z,0.00
2023-10-31T01:01:01.752Z,0.15
2023-10-31T01:03:30.142Z,0.03
2023-10-31T01:05:58.318Z,0.10
2023-10-31T01:08:26.332Z,0.20
2023-10-31T01:10:57.294Z,0.10
2023-10-31T01:13:25.308Z,0.05
2023-10-31T01:15:53.391Z,0.10
2023-10-31T01:18:22.764Z,0.10
2023-10-31T01:20:50.997Z,0.10
2023-10-31T01:23:18.943Z,0.10
2023-10-31T01:25:46.932Z,0.00
2023-10-31T01:28:14.950Z,0.10
2023-10-31T01:30:42.922Z,0.10
2023-10-31T01:33:11.059Z,0.00
2023-10-31T01:35:40.490Z,0.00
2023-10-31T01:38:08.523Z,0.00
2023-10-31T01:40:36.620Z,0.00
2023-10-31T01:43:04.609Z,0.10
2023-10-31T01:45:32.589Z,0.10
2023-10-31T01:48:00.937Z,0.10
2023-10-31T01:50:29.939Z,0.00
2023-10-31T01:55:28.639Z,0.10
2023-10-31T01:57:57.061Z,0.10
2023-10-31T02:00:25.060Z,0.10
2023-10-31T02:02:56.105Z,0.10
2023-10-31T02:05:24.091Z,0.10
2023-10-31T02:07:52.221Z,0.00
2023-10-31T02:10:21.709Z,0.00
2023-10-31T02:12:49.726Z,0.10
2023-10-31T02:15:17.721Z,0.10
2023-10-31T02:17:45.838Z,0.10
2023-10-31T02:20:14.148Z,0.00
2023-10-31T02:22:43.826Z,0.10
2023-10-31T02:25:19.233Z,0.00
2023-10-31T02:27:47.469Z,0.10
2023-10-31T02:30:15.736Z,0.10
2023-10-31T02:32:44.023Z,0.15
2023-10-31T02:35:12.469Z,0.00
2023-10-31T02:37:40.572Z,0.10
2023-10-31T02:40:11.438Z,0.03
2023-10-31T02:42:39.415Z,0.10
2023-10-31T02:45:08.508Z,0.10
2023-10-31T02:47:36.528Z,0.10
2023-10-31T02:50:05.015Z,0.10
2023-10-31T02:52:33.226Z,0.20
2023-10-31T02:55:01.235Z,0.20
2023-10-31T02:57:29.655Z,0.10
2023-10-31T02:59:57.585Z,0.13
2023-10-31T03:02:25.930Z,0.00
2023-10-31T03:04:56.767Z,0.10
2023-10-31T03:07:24.778Z,0.10
2023-10-31T03:09:52.783Z,0.00
2023-10-31T03:12:20.849Z,0.10
2023-10-31T03:14:50.257Z,0.00
2023-10-31T03:17:20.472Z,0.10
2023-10-31T03:19:48.731Z,0.00
2023-10-31T03:22:16.715Z,0.00
2023-10-31T03:24:44.677Z,0.30
2023-10-31T03:27:12.667Z,0.10
2023-10-31T03:29:40.649Z,0.20
2023-10-31T03:32:11.237Z,0.10
2023-10-31T03:34:39.709Z,0.10
2023-10-31T03:37:08.660Z,0.20
2023-10-31T03:42:04.510Z,0.20
2023-10-31T03:44:32.493Z,0.10
2023-10-31T03:47:00.452Z,0.13
2023-10-31T03:49:29.950Z,0.10
2023-10-31T03:51:57.929Z,0.20
2023-10-31T03:54:25.899Z,0.00
2023-10-31T03:56:53.865Z,0.20
2023-10-31T03:59:21.833Z,0.13
2023-10-31T04:01:49.822Z,0.20
2023-10-31T04:04:17.977Z,0.20
2023-10-31T04:06:46.670Z,0.10
2023-10-31T04:09:15.106Z,0.10
2023-10-31T04:11:44.413Z,0.13
2023-10-31T04:14:12.419Z,0.20
2023-10-31T04:16:46.907Z,0.30
2023-10-31T04:19:15.067Z,0.20
2023-10-31T04:21:43.047Z,0.13
2023-10-31T04:24:12.507Z,0.20
2023-10-31T04:26:42.572Z,0.10
2023-10-31T04:29:10.595Z,0.17
2023-10-31T04:31:43.876Z,0.10
2023-10-31T04:34:12.811Z,0.20
2023-10-31T04:36:41.038Z,0.20
2023-10-31T04:39:09.043Z,0.20
2023-10-31T04:41:38.410Z,0.20
2023-10-31T04:44:07.345Z,0.05
2023-10-31T04:46:35.950Z,0.10
2023-10-31T04:49:04.566Z,0.10
2023-10-31T04:51:35.905Z,0.00
2023-10-31T04:54:04.245Z,0.10
2023-10-31T04:56:32.798Z,0.28
2023-10-31T04:59:02.554Z,0.10
2023-10-31T05:01:30.599Z,0.10
2023-10-31T05:04:06.961Z,0.10
2023-10-31T05:06:40.650Z,0.10
2023-10-31T05:09:08.640Z,0.20
2023-10-31T05:11:37.048Z,0.10
2023-10-31T05:14:07.050Z,0.10
2023-10-31T05:16:41.720Z,0.00
2023-10-31T05:19:09.753Z,0.13
2023-10-31T05:21:37.832Z,0.13
2023-10-31T05:24:06.722Z,0.13
2023-10-31T05:29:02.516Z,0.17
2023-10-31T05:31:31.997Z,0.10
2023-10-31T05:33:59.948Z,0.10
2023-10-31T05:36:29.186Z,0.10
2023-10-31T05:38:57.147Z,0.10
2023-10-31T05:41:25.275Z,0.00
2023-10-31T05:43:53.403Z,0.10
2023-10-31T05:46:21.613Z,0.00
2023-10-31T05:48:52.215Z,0.10
2023-10-31T05:51:21.340Z,0.17
2023-10-31T05:53:50.443Z,0.10
2023-10-31T05:56:18.987Z,0.10
2023-10-31T05:58:47.457Z,0.00
2023-10-31T06:01:15.564Z,0.10
2023-10-31T06:03:45.429Z,0.00
2023-10-31T06:06:15.039Z,0.40
2023-10-31T06:08:43.910Z,0.20
2023-10-31T06:13:42.246Z,0.10
2023-10-31T06:16:10.595Z,0.10
2023-10-31T06:18:41.272Z,0.30
2023-10-31T06:21:10.497Z,0.15
2023-10-31T06:23:40.467Z,0.20
2023-10-31T06:26:08.631Z,0.17
2023-10-31T06:28:41.386Z,0.30
2023-10-31T06:31:14.045Z,0.30
2023-10-31T06:33:42.134Z,0.10
2023-10-31T06:36:10.960Z,1.30
2023-10-31T06:38:40.379Z,0.32
2023-10-31T06:41:08.655Z,0.30
2023-10-31T06:43:36.994Z,0.10
2023-10-31T06:46:06.569Z,0.30
2023-10-31T06:48:34.588Z,0.10
2023-10-31T06:51:02.617Z,0.20
2023-10-31T06:53:30.595Z,0.10
2023-10-31T06:56:00.044Z,0.25
2023-10-31T06:58:28.182Z,0.00
2023-10-31T07:00:56.452Z,0.20
2023-10-31T07:03:24.559Z,0.28
2023-10-31T07:05:52.631Z,0.00
2023-10-31T07:08:20.768Z,0.20
2023-10-31T07:10:48.810Z,0.17
2023-10-31T07:13:18.984Z,0.20
2023-10-31T07:15:47.836Z,0.10
2023-10-31T07:18:15.846Z,0.30
2023-10-31T07:20:43.835Z,0.50
2023-10-31T07:23:11.957Z,0.20
2023-10-31T07:25:39.940Z,0.30
2023-10-31T07:28:10.706Z,0.38
2023-10-31T07:30:40.072Z,0.22
2023-10-31T07:33:08.151Z,0.15
2023-10-31T07:35:36.149Z,0.32
2023-10-31T07:38:04.611Z,0.10
2023-10-31T07:40:32.642Z,0.20
2023-10-31T07:43:00.632Z,0.47
2023-10-31T07:45:28.714Z,0.20
2023-10-31T07:48:20.617Z,0.28
2023-10-31T07:50:48.639Z,0.22
2023-10-31T07:53:37.594Z,0.20
2023-10-31T07:56:06.316Z,0.00
2023-10-31T07:58:34.288Z,0.03
2023-10-31T08:01:02.217Z,0.00
2023-10-31T08:03:31.674Z,0.20
2023-10-31T08:06:01.530Z,0.20
2023-10-31T08:08:29.588Z,0.20
2023-10-31T08:10:58.495Z,0.28
2023-10-31T08:13:26.559Z,0.20
2023-10-31T08:15:54.555Z,0.10
2023-10-31T08:18:27.236Z,0.20
2023-10-31T08:20:56.666Z,0.40
2023-10-31T08:23:24.830Z,0.30
2023-10-31T08:25:55.854Z,0.20
2023-10-31T08:28:25.853Z,0.30
2023-10-31T08:30:53.932Z,0.30
2023-10-31T08:33:22.049Z,0.35
2023-10-31T08:35:50.672Z,0.40
2023-10-31T08:38:27.566Z,0.20
2023-10-31T08:41:06.207Z,0.20
2023-10-31T08:43:34.269Z,0.40
2023-10-31T08:46:02.374Z,0.28
2023-10-31T08:48:32.894Z,0.10
2023-10-31T08:51:01.069Z,0.32
2023-10-31T08:53:34.714Z,0.20
2023-10-31T08:56:03.364Z,0.10
2023-10-31T08:59:12.942Z,0.32
2023-10-31T09:04:58.347Z,0.20
2023-10-31T09:07:29.719Z,0.30
2023-10-31T09:09:59.394Z,0.50
2023-10-31T09:12:28.455Z,1.02
2023-10-31T09:14:57.821Z,0.22
2023-10-31T09:17:38.487Z,0.30
2023-10-31T09:20:25.121Z,0.20
2023-10-31T09:22:53.809Z,0.03
2023-10-31T09:25:28.095Z,0.50
2023-10-31T09:28:07.490Z,0.20
2023-10-31T09:30:43.175Z,0.32
2023-10-31T09:33:21.120Z,0.20
2023-10-31T09:36:13.082Z,0.40
2023-10-31T09:38:45.795Z,0.30
2023-10-31T09:41:25.860Z,0.30
2023-10-31T09:44:35.803Z,0.08
2023-10-31T09:47:06.828Z,0.00
2023-10-31T09:50:06.113Z,0.10
2023-10-31T09:52:51.339Z,0.20
2023-10-31T09:55:43.974Z,0.30
2023-10-31T09:58:34.315Z,0.20
2023-10-31T10:01:04.743Z,0.22
2023-10-31T10:03:37.225Z,0.30
2023-10-31T10:14:56.169Z,0.30
2023-10-31T10:17:35.575Z,0.03
2023-10-31T10:20:11.627Z,0.20
2023-10-31T10:23:28.641Z,0.17
2023-10-31T10:26:38.017Z,0.35
2023-10-31T10:29:06.543Z,0.20
2023-10-31T10:31:39.720Z,0.28
2023-10-31T10:34:08.432Z,0.40
2023-10-31T10:36:36.739Z,0.20
2023-10-31T10:39:27.569Z,0.20
2023-10-31T10:42:09.883Z,0.20
2023-10-31T10:44:55.450Z,0.40
2023-10-31T10:48:07.073Z,0.30
2023-10-31T10:50:56.549Z,0.35
2023-10-31T10:54:16.825Z,0.40
2023-10-31T10:56:50.209Z,0.30
2023-10-31T10:59:25.797Z,0.32
2023-10-31T11:02:02.385Z,0.57
2023-10-31T11:04:34.061Z,0.60
2023-10-31T11:07:24.170Z,0.60
2023-10-31T11:10:08.288Z,0.50
2023-10-31T11:12:57.993Z,0.45
2023-10-31T11:15:38.917Z,0.30
2023-10-31T11:18:15.149Z,0.25
2023-10-31T11:20:45.217Z,0.30
2023-10-31T11:23:22.234Z,0.40
2023-10-31T11:25:57.313Z,0.40
2023-10-31T11:32:19.300Z,0.30
2023-10-31T11:34:48.995Z,0.20
2023-10-31T11:37:37.033Z,0.30
2023-10-31T11:43:19.105Z,0.15
2023-10-31T11:45:50.461Z,0.30
2023-10-31T11:48:18.509Z,0.47
2023-10-31T11:50:57.567Z,0.22
2023-10-31T11:53:28.698Z,0.30
2023-10-31T11:56:00.911Z,0.35
2023-10-31T11:58:45.330Z,0.30
2023-10-31T12:01:16.927Z,0.40
2023-10-31T12:03:48.855Z,0.22
2023-10-31T12:06:21.698Z,0.50
2023-10-31T12:08:52.024Z,0.43
2023-10-31T12:11:24.444Z,0.55
2023-10-31T12:13:57.455Z,0.20
2023-10-31T12:16:27.505Z,0.35
2023-10-31T12:19:06.479Z,0.50
2023-10-31T12:21:39.946Z,0.45
2023-10-31T12:24:12.423Z,0.40
2023-10-31T12:26:43.231Z,0.50
2023-10-31T12:29:13.073Z,0.50
2023-10-31T12:31:52.264Z,0.25
2023-10-31T12:34:26.966Z,0.40
2023-10-31T12:36:56.223Z,0.20
2023-10-31T12:39:28.233Z,0.40
2023-10-31T12:41:58.059Z,0.32
2023-10-31T12:44:30.150Z,0.30
2023-10-31T12:47:01.459Z,0.28
2023-10-31T12:49:29.665Z,0.55
2023-10-31T12:51:59.257Z,0.35
2023-10-31T12:54:37.399Z,0.52
2023-10-31T12:57:09.298Z,0.40
2023-10-31T12:59:39.306Z,0.30
2023-10-31T13:02:09.771Z,0.30
2023-10-31T13:04:38.331Z,0.50
2023-10-31T13:07:08.692Z,0.32
2023-10-31T13:09:43.274Z,0.45
2023-10-31T13:12:15.119Z,0.35
2023-10-31T13:14:46.074Z,0.40
2023-10-31T13:17:16.118Z,0.30
2023-10-31T13:19:44.253Z,0.40
2023-10-31T13:22:14.468Z,0.20
2023-10-31T13:24:47.022Z,0.45
2023-10-31T13:27:17.848Z,0.20
2023-10-31T13:29:47.104Z,0.32
2023-10-31T13:32:15.136Z,0.60
2023-10-31T13:34:43.289Z,0.70
2023-10-31T13:37:13.208Z,0.30
2023-10-31T13:39:51.553Z,0.50
2023-10-31T13:42:23.317Z,0.43
2023-10-31T13:44:51.470Z,0.30
2023-10-31T13:47:21.663Z,0.50
2023-10-31T13:49:49.886Z,0.65
2023-10-31T13:52:19.762Z,0.52
2023-10-31T13:54:47.987Z,0.60
2023-10-31T13:57:17.493Z,0.60
2023-10-31T13:59:49.034Z,0.30
2023-10-31T14:02:19.323Z,0.40
2023-10-31T14:04:58.491Z,0.30
2023-10-31T14:07:44.416Z,0.50
2023-10-31T14:10:15.467Z,0.60
2023-10-31T14:12:43.520Z,0.40
2023-10-31T14:15:13.049Z,0.50
2023-10-31T14:17:41.679Z,0.32
2023-10-31T14:20:13.249Z,0.45
2023-10-31T14:22:41.292Z,0.43
2023-10-31T14:25:51.438Z,0.43
2023-10-31T14:28:24.729Z,0.32
2023-10-31T14:30:55.262Z,0.30
2023-10-31T14:33:23.384Z,0.60
2023-10-31T14:35:51.461Z,0.70
2023-10-31T14:38:19.590Z,0.50
2023-10-31T14:40:47.601Z,0.40
2023-10-31T14:43:19.373Z,0.20
2023-10-31T14:45:47.856Z,0.60
2023-10-31T14:48:17.244Z,0.55
2023-10-31T14:50:45.261Z,0.38
2023-10-31T14:53:13.390Z,1.33
2023-10-31T14:55:41.552Z,0.55
2023-10-31T14:58:12.247Z,0.47
2023-10-31T15:00:40.567Z,0.40
2023-10-31T15:03:08.762Z,0.52
2023-10-31T15:05:38.201Z,0.38
2023-10-31T15:08:11.727Z,0.30
2023-10-31T15:10:39.818Z,0.50
2023-10-31T15:13:19.833Z,0.38
2023-10-31T15:15:50.316Z,0.40
2023-10-31T15:18:21.581Z,0.68
2023-10-31T15:20:51.149Z,0.32
2023-10-31T15:23:19.328Z,0.35
2023-10-31T15:25:58.509Z,0.40
2023-10-31T15:28:34.505Z,0.40
2023-10-31T15:31:06.684Z,0.47
2023-10-31T15:33:34.699Z,0.40
2023-10-31T15:36:04.481Z,0.43
2023-10-31T15:38:32.645Z,0.63
2023-10-31T15:41:10.911Z,0.60
2023-10-31T15:43:43.206Z,0.50
2023-10-31T15:46:14.464Z,0.38
2023-10-31T15:48:43.268Z,0.50
2023-10-31T15:51:12.809Z,0.63
2023-10-31T15:53:42.043Z,0.47
2023-10-31T15:56:11.414Z,0.50
2023-10-31T15:58:41.045Z,0.45
2023-10-31T16:01:09.522Z,0.40
2023-10-31T16:03:37.927Z,0.60
2023-10-31T16:06:06.930Z,0.50
2023-10-31T16:11:07.874Z,0.32
2023-10-31T16:13:38.642Z,0.63
2023-10-31T16:16:07.820Z,0.60
2023-10-31T16:18:35.956Z,0.50
2023-10-31T16:21:05.736Z,0.30
2023-10-31T16:23:40.857Z,0.50
2023-10-31T16:26:09.179Z,0.40
2023-10-31T16:28:38.495Z,0.50
2023-10-31T16:31:06.701Z,0.57
2023-10-31T16:33:36.595Z,0.50
2023-10-31T16:36:07.364Z,0.47
2023-10-31T16:38:41.181Z,0.40
2023-10-31T16:41:15.978Z,0.40
2023-10-31T16:43:44.182Z,0.40
2023-10-31T16:46:22.845Z,0.60
2023-10-31T16:48:50.978Z,0.40
2023-10-31T16:51:19.594Z,0.40
2023-10-31T16:53:50.130Z,0.60
2023-10-31T16:56:22.593Z,0.40
2023-10-31T16:58:50.886Z,0.50
2023-10-31T17:01:18.997Z,0.60
2023-10-31T17:03:47.153Z,0.73
2023-10-31T17:06:16.307Z,0.38
2023-10-31T17:08:58.482Z,0.50
2023-10-31T17:11:27.554Z,0.60
2023-10-31T17:14:03.069Z,0.60
2023-10-31T17:16:39.853Z,0.40
2023-10-31T17:19:09.550Z,0.60
2023-10-31T17:21:37.733Z,0.52
2023-10-31T17:24:16.072Z,0.45
2023-10-31T17:26:44.902Z,0.70
2023-10-31T17:29:12.987Z,0.50
2023-10-31T17:31:41.350Z,0.60
2023-10-31T17:34:10.801Z,0.80
2023-10-31T17:36:38.841Z,0.40
2023-10-31T17:39:10.116Z,0.50
2023-10-31T17:41:38.235Z,0.60
2023-10-31T17:44:14.745Z,0.45
2023-10-31T17:46:46.409Z,0.60
2023-10-31T17:49:14.584Z,0.47
2023-10-31T17:51:45.769Z,0.60
2023-10-31T17:54:17.348Z,0.60
2023-10-31T17:56:47.593Z,0.55
2023-10-31T17:59:15.712Z,0.57
2023-10-31T18:02:07.885Z,0.60
2023-10-31T18:04:41.629Z,0.70
2023-10-31T18:07:27.345Z,0.60
2023-10-31T18:09:57.968Z,0.75
2023-10-31T18:12:26.007Z,0.80
2023-10-31T18:14:55.912Z,0.80
2023-10-31T18:17:24.009Z,0.45
2023-10-31T18:19:57.912Z,0.65
2023-10-31T18:22:27.466Z,0.50
2023-10-31T18:25:11.451Z,0.70
2023-10-31T18:27:41.490Z,0.60
2023-10-31T18:30:12.788Z,0.73
2023-10-31T18:32:40.891Z,0.52
2023-10-31T18:35:09.859Z,0.80
2023-10-31T18:37:38.215Z,0.68
2023-10-31T18:40:11.801Z,0.65
2023-10-31T18:42:43.533Z,0.60
2023-10-31T18:45:15.724Z,0.50
2023-10-31T18:47:47.196Z,0.70
2023-10-31T18:50:17.008Z,0.63
2023-10-31T18:52:47.210Z,0.70
2023-10-31T18:55:21.274Z,0.80
2023-10-31T18:58:07.846Z,0.80
2023-10-31T19:01:04.748Z,0.80
2023-10-31T19:03:33.058Z,0.60
2023-10-31T19:06:10.426Z,0.65
2023-10-31T19:08:38.487Z,0.50
2023-10-31T19:11:15.473Z,0.60
2023-10-31T19:13:46.637Z,0.60
2023-10-31T19:16:18.601Z,0.88
2023-10-31T19:18:49.188Z,0.55
2023-10-31T19:21:19.647Z,0.75
2023-10-31T19:23:50.536Z,0.65
2023-10-31T19:26:20.417Z,0.70
2023-10-31T19:28:48.489Z,0.40
2023-10-31T19:31:16.615Z,0.70
2023-10-31T19:33:44.703Z,0.70
2023-10-31T19:36:12.788Z,0.85
2023-10-31T19:38:42.085Z,0.90
2023-10-31T19:41:12.901Z,0.60
2023-10-31T19:43:44.079Z,0.55
2023-10-31T19:46:12.134Z,0.57
2023-10-31T19:48:43.996Z,0.73
2023-10-31T19:51:14.576Z,0.38
2023-10-31T19:53:42.799Z,0.55
2023-10-31T19:56:18.347Z,0.65
2023-10-31T19:58:47.853Z,0.40
2023-10-31T20:01:16.327Z,0.40
2023-10-31T20:03:44.641Z,0.35
2023-10-31T20:06:15.751Z,0.60
2023-10-31T20:08:49.793Z,0.57
2023-10-31T20:11:19.340Z,0.70
2023-10-31T20:13:49.715Z,0.47
2023-10-31T20:16:21.096Z,0.45
2023-10-31T20:18:56.281Z,0.55
2023-10-31T20:21:24.327Z,0.63
2023-10-31T20:23:52.376Z,0.60
2023-10-31T20:26:23.187Z,0.52
2023-10-31T20:28:54.750Z,0.47
2023-10-31T20:31:24.145Z,0.60
2023-10-31T20:33:52.290Z,0.52
2023-10-31T20:36:26.302Z,0.22
2023-10-31T20:39:00.249Z,0.50
2023-10-31T20:41:28.228Z,0.60
2023-10-31T20:43:57.817Z,0.40
2023-10-31T20:46:28.802Z,0.70
2023-10-31T20:48:57.040Z,0.40
2023-10-31T20:51:32.293Z,0.40
2023-10-31T20:54:01.290Z,0.22
2023-10-31T20:59:18.661Z,0.40
2023-10-31T21:01:49.651Z,0.40
2023-10-31T21:04:17.702Z,0.50
2023-10-31T21:06:48.866Z,0.47
2023-10-31T21:09:18.248Z,0.30
2023-10-31T21:11:46.548Z,0.50
2023-10-31T21:14:16.176Z,0.57
2023-10-31T21:16:46.990Z,0.30
2023-10-31T21:19:21.502Z,0.63
2023-10-31T21:21:53.062Z,0.45
2023-10-31T21:24:24.130Z,0.60
2023-10-31T21:26:52.164Z,0.30
2023-10-31T21:29:21.523Z,0.32
2023-10-31T21:31:51.252Z,0.50
2023-10-31T21:34:22.492Z,0.70
2023-10-31T21:36:58.404Z,0.30
2023-10-31T21:39:31.535Z,0.40
2023-10-31T21:42:06.975Z,0.50
2023-10-31T21:44:44.693Z,0.70
2023-10-31T21:47:13.000Z,0.57
2023-10-31T21:49:41.056Z,0.30
2023-10-31T21:52:11.132Z,0.47
2023-10-31T21:54:42.119Z,0.30
2023-10-31T21:57:13.726Z,0.52
2023-10-31T21:59:47.257Z,0.40
2023-10-31T22:02:15.727Z,0.50
2023-10-31T22:04:53.321Z,0.60
2023-10-31T22:07:21.402Z,0.63
2023-10-31T22:09:49.594Z,0.40
2023-10-31T22:12:19.899Z,0.60
2023-10-31T22:14:52.176Z,0.60
2023-10-31T22:17:22.543Z,0.60
2023-10-31T22:19:50.589Z,0.52
2023-10-31T22:22:21.178Z,0.60
2023-10-31T22:24:49.288Z,0.40
2023-10-31T22:27:17.401Z,0.50
2023-10-31T22:29:45.420Z,0.70
2023-10-31T22:32:18.979Z,0.68
2023-10-31T22:34:52.606Z,0.50
2023-10-31T22:37:28.213Z,0.70
2023-10-31T22:39:58.639Z,0.47
2023-10-31T22:42:26.767Z,0.82
2023-10-31T22:44:57.785Z,0.40
2023-10-31T22:47:27.419Z,0.52
2023-10-31T22:49:58.570Z,0.60
2023-10-31T22:52:26.549Z,0.50
2023-10-31T22:54:54.586Z,0.50
2023-10-31T22:57:22.573Z,0.52
2023-10-31T22:59:50.689Z,0.65
2023-10-31T23:02:20.091Z,0.50
2023-10-31T23:04:56.789Z,0.55
2023-10-31T23:07:24.969Z,0.52
2023-10-31T23:09:53.091Z,0.50
2023-10-31T23:12:22.925Z,0.55
2023-10-31T23:14:50.910Z,0.20
2023-10-31T23:17:19.129Z,0.30
2023-10-31T23:19:54.107Z,0.47
2023-10-31T23:22:24.048Z,0.40
2023-10-31T23:24:52.149Z,0.73
2023-10-31T23:27:20.344Z,0.47
2023-10-31T23:29:51.308Z,0.57
2023-10-31T23:32:21.548Z,0.40
2023-10-31T23:34:49.855Z,0.50
2023-10-31T23:37:17.996Z,0.38
2023-10-31T23:39:47.496Z,0.50
2023-10-31T23:42:17.721Z,0.22
2023-10-31T23:44:47.811Z,0.30
2023-10-31T23:47:18.360Z,0.45
2023-10-31T23:49:46.613Z,0.40
2023-10-31T23:52:15.455Z,0.40
2023-10-31T23:54:43.704Z,0.40
2023-10-31T23:57:15.823Z,0.20
2023-10-31T23:59:44.012Z,0.38
